Time;durP1;ratioP1;P1;durP2;ratioP2;P2;SDS_P1;SDS_P2;PMS_P1;PMS_P2;Temp;Humidity;BMP_temperature;BMP_pressure;BME280_temperature;BME280_humidity;BME280_pressure;Samples;Min_cycle;Max_cycle;Signal;HPM_P1;HPM_P2
2023/01/16 00:00:53;;;;;;;0.10;0.10;;;;;;;4.89;78.59;98582.00;7340762;19;20026;-58
2023/01/16 00:03:19;;;;;;;0.10;0.10;;;;;;;4.89;78.14;98585.41;7354293;19;21101;-58
2023/01/16 00:05:44;;;;;;;0.00;0.00;;;;;;;4.88;78.27;98588.91;7351171;19;20045;-59
2023/01/16 00:08:10;;;;;;;0.00;0.00;;;;;;;4.88;78.17;98594.09;7359399;19;20010;-59
2023/01/16 00:10:35;;;;;;;0.00;0.00;;;;;;;4.88;77.83;98596.66;7361960;19;20529;-58
2023/01/16 00:13:01;;;;;;;0.10;0.10;;;;;;;4.87;77.74;98594.13;7357613;19;20002;-58
2023/01/16 00:15:26;;;;;;;0.10;0.10;;;;;;;4.85;77.89;98588.16;7358040;19;20002;-58
2023/01/16 00:17:52;;;;;;;0.00;0.00;;;;;;;4.79;78.28;98586.63;7358040;19;20021;-59
2023/01/16 00:20:18;;;;;;;0.08;0.08;;;;;;;4.80;78.21;98587.47;7358574;19;20010;-58
2023/01/16 00:22:43;;;;;;;0.03;0.03;;;;;;;4.75;77.90;98600.53;7359157;19;20018;-58
2023/01/16 00:25:09;;;;;;;0.10;0.10;;;;;;;4.66;77.80;98588.78;7356536;19;20026;-58
2023/01/16 00:27:34;;;;;;;0.00;0.00;;;;;;;4.66;77.47;98590.50;7355831;19;20011;-58
2023/01/16 00:30:00;;;;;;;0.00;0.00;;;;;;;4.67;78.02;98598.22;7354988;19;20053;-58
2023/01/16 00:32:25;;;;;;;0.00;0.00;;;;;;;4.65;77.78;98600.00;7357195;19;20010;-59
2023/01/16 00:34:50;;;;;;;0.10;0.10;;;;;;;4.62;77.82;98601.84;7354486;19;20667;-58
2023/01/16 00:37:16;;;;;;;0.00;0.00;;;;;;;4.61;78.19;98592.38;7354670;19;20006;-58
2023/01/16 00:39:41;;;;;;;0.10;0.10;;;;;;;4.59;77.84;98597.59;7356838;19;20022;-59
2023/01/16 00:42:07;;;;;;;0.00;0.00;;;;;;;4.61;77.96;98594.97;7357618;19;20039;-58
2023/01/16 00:44:32;;;;;;;0.00;0.00;;;;;;;4.50;78.52;98573.78;7356601;19;20039;-58
2023/01/16 00:46:58;;;;;;;0.00;0.00;;;;;;;4.56;78.36;98587.38;7355597;19;20018;-58
2023/01/16 00:49:23;;;;;;;0.00;0.00;;;;;;;4.66;78.22;98593.94;7358017;19;20106;-58
2023/01/16 00:51:49;;;;;;;0.00;0.00;;;;;;;4.69;78.37;98598.16;7354969;19;20014;-59
2023/01/16 00:54:14;;;;;;;0.00;0.00;;;;;;;4.72;78.75;98602.41;7358114;19;20017;-59
2023/01/16 00:56:40;;;;;;;0.00;0.00;;;;;;;4.73;78.75;98598.91;7355119;19;20030;-59
2023/01/16 00:59:05;;;;;;;0.00;0.00;;;;;;;4.77;78.83;98595.34;7357475;19;20750;-58
2023/01/16 01:01:31;;;;;;;0.00;0.00;;;;;;;4.79;78.66;98596.97;7352640;19;20011;-58
2023/01/16 01:03:59;;;;;;;0.10;0.10;;;;;;;4.81;78.96;98587.41;7356504;19;20014;-58
2023/01/16 01:06:24;;;;;;;0.00;0.00;;;;;;;4.85;78.94;98589.00;7351954;19;20101;-57
2023/01/16 01:08:50;;;;;;;0.00;0.00;;;;;;;4.89;78.67;98584.56;7352972;19;20010;-59
2023/01/16 01:11:15;;;;;;;0.00;0.00;;;;;;;4.90;78.78;98591.44;7355095;19;20670;-59
2023/01/16 01:13:41;;;;;;;0.00;0.00;;;;;;;4.92;78.58;98590.50;7355050;19;20027;-58
2023/01/16 01:16:08;;;;;;;0.10;0.10;;;;;;;4.85;79.07;98567.47;7342557;19;20483;-58
2023/01/16 01:18:33;;;;;;;0.10;0.10;;;;;;;4.98;78.69;98589.44;7352104;19;20015;-59
2023/01/16 01:20:59;;;;;;;0.10;0.10;;;;;;;5.00;79.02;98581.63;7355835;19;21196;-58
2023/01/16 01:23:24;;;;;;;0.10;0.10;;;;;;;4.86;78.84;98549.31;7353198;19;20036;-58
2023/01/16 01:25:50;;;;;;;0.00;0.00;;;;;;;5.04;78.58;98578.88;7356611;19;20016;-59
2023/01/16 01:28:15;;;;;;;0.10;0.10;;;;;;;4.94;78.54;98562.84;7355343;19;20010;-58
2023/01/16 01:30:41;;;;;;;0.00;0.00;;;;;;;5.08;78.33;98584.81;7355090;19;20014;-60
2023/01/16 01:33:08;;;;;;;0.00;0.00;;;;;;;5.08;78.21;98585.66;7355371;19;20014;-58
2023/01/16 01:35:34;;;;;;;0.00;0.00;;;;;;;5.09;78.36;98591.66;7356424;19;20380;-59
2023/01/16 01:37:59;;;;;;;0.10;0.10;;;;;;;5.08;78.80;98583.06;7354611;19;20010;-58
2023/01/16 01:40:24;;;;;;;0.00;0.00;;;;;;;5.08;78.26;98590.81;7355992;19;20066;-58
2023/01/16 01:42:53;;;;;;;0.10;0.10;;;;;;;5.09;78.47;98592.50;7357277;19;20825;-58
2023/01/16 01:45:24;;;;;;;0.00;0.00;;;;;;;5.11;78.50;98600.19;7355406;19;20017;-58
2023/01/16 01:48:11;;;;;;;0.00;0.00;;;;;;;5.12;78.61;98592.41;7356951;19;20044;-59
2023/01/16 01:50:41;;;;;;;0.00;0.00;;;;;;;5.12;78.65;98589.81;7353780;19;20034;-58
2023/01/16 01:53:16;;;;;;;0.03;0.03;;;;;;;5.13;78.58;98599.28;7354758;19;20011;-59
2023/01/16 01:55:44;;;;;;;0.00;0.00;;;;;;;5.14;78.51;98593.19;7354428;19;20011;-58
2023/01/16 01:58:11;;;;;;;0.00;0.00;;;;;;;5.14;78.44;98600.13;7355310;19;20057;-57
2023/01/16 02:00:36;;;;;;;0.00;0.00;;;;;;;5.11;78.76;98600.19;7352781;19;20115;-58
2023/01/16 02:03:13;;;;;;;0.00;0.00;;;;;;;5.18;78.32;98605.13;7355069;19;20336;-58
2023/01/16 02:05:44;;;;;;;0.10;0.10;;;;;;;5.11;78.74;98585.53;7355871;19;20565;-58
2023/01/16 02:08:14;;;;;;;0.10;0.10;;;;;;;5.20;78.41;98602.47;7354898;19;20023;-59
2023/01/16 02:10:45;;;;;;;0.00;0.00;;;;;;;5.21;78.32;98597.25;7356019;19;20608;-58
2023/01/16 02:13:11;;;;;;;0.00;0.00;;;;;;;5.21;78.80;98609.34;7354800;19;20006;-57
2023/01/16 02:19:14;;;;;;;0.00;0.00;;;;;;;5.21;78.41;98612.75;7355221;19;20024;-59
2023/01/16 02:21:48;;;;;;;0.00;0.00;;;;;;;5.27;78.63;98605.69;7357686;19;20044;-58
2023/01/16 02:24:44;;;;;;;0.00;0.00;;;;;;;5.28;78.42;98605.66;7256394;19;2004150;-58
2023/01/16 02:27:44;;;;;;;0.00;0.00;;;;;;;5.28;78.60;98604.81;7260820;19;2004349;-58
2023/01/16 02:30:47;;;;;;;0.00;0.00;;;;;;;5.30;78.36;98614.19;7258062;19;2004445;-58
2023/01/16 02:33:22;;;;;;;0.00;0.00;;;;;;;5.26;78.32;98610.03;7258716;19;2004204;-59
2023/01/16 02:36:06;;;;;;;0.00;0.00;;;;;;;5.28;78.41;98621.19;7358672;19;20034;-58
2023/01/16 02:38:49;;;;;;;0.00;0.00;;;;;;;5.30;78.28;98621.97;7361917;19;20058;-58
2023/01/16 02:41:41;;;;;;;0.00;0.00;;;;;;;5.30;78.64;98618.53;7361691;19;20580;-58
2023/01/16 02:44:38;;;;;;;0.00;0.00;;;;;;;5.29;78.65;98622.88;7260282;19;2004429;-58
2023/01/16 02:47:11;;;;;;;0.10;0.10;;;;;;;5.28;78.51;98623.78;7260118;19;2004665;-59
2023/01/16 02:49:46;;;;;;;0.00;0.00;;;;;;;5.27;78.16;98624.69;7361377;19;20027;-57
2023/01/16 02:52:17;;;;;;;0.00;0.00;;;;;;;5.27;78.33;98621.22;7360982;19;20822;-58
2023/01/16 02:54:59;;;;;;;0.10;0.10;;;;;;;5.27;77.87;98629.84;7361711;19;20025;-58
2023/01/16 02:57:30;;;;;;;0.00;0.00;;;;;;;5.21;78.17;98622.28;7362395;19;20014;-57
2023/01/16 02:59:56;;;;;;;0.05;0.05;;;;;;;5.15;77.94;98633.69;7350765;19;20044;-58
2023/01/16 03:02:21;;;;;;;0.10;0.10;;;;;;;5.11;77.53;98626.06;7354428;19;20010;-59
2023/01/16 03:04:49;;;;;;;0.00;0.00;;;;;;;5.07;77.95;98634.81;7357727;19;20459;-58
2023/01/16 03:07:49;;;;;;;0.00;0.00;;;;;;;5.02;77.33;98637.59;7356663;19;20030;-58
2023/01/16 03:10:23;;;;;;;0.10;0.10;;;;;;;4.94;77.54;98626.66;7257532;19;2004338;-58
2023/01/16 03:13:00;;;;;;;0.08;0.08;;;;;;;4.87;76.98;98626.00;7354674;19;20017;-58
2023/01/16 03:15:32;;;;;;;;;;;;;;;4.83;77.07;98632.19;7359958;19;20740;-58
2023/01/16 03:18:18;;;;;;;0.00;0.00;;;;;;;4.76;76.91;98635.00;7356231;19;19939;-58
2023/01/16 03:21:08;;;;;;;0.10;0.10;;;;;;;4.69;77.35;98644.69;7357903;19;20010;-58
2023/01/16 03:23:52;;;;;;;0.10;0.10;;;;;;;4.62;77.27;98650.97;7355814;19;20046;-58
2023/01/16 03:26:27;;;;;;;0.10;0.10;;;;;;;4.54;77.53;98648.59;7355138;19;20036;-58
2023/01/16 03:29:03;;;;;;;0.00;0.00;;;;;;;4.38;77.37;98630.16;7358190;19;20022;-58
2023/01/16 03:31:39;;;;;;;0.10;0.10;;;;;;;4.45;77.23;98638.53;7351962;19;20046;-58
2023/01/16 03:34:30;;;;;;;0.10;0.10;;;;;;;4.42;77.35;98639.50;7356088;19;20031;-58
2023/01/16 03:37:01;;;;;;;0.03;0.03;;;;;;;4.35;77.23;98640.56;7255507;19;2004619;-58
2023/01/16 03:39:32;;;;;;;0.08;0.08;;;;;;;4.33;77.46;98642.38;7360425;19;20039;-58
2023/01/16 03:42:04;;;;;;;0.10;0.10;;;;;;;4.30;77.44;98647.63;7356940;19;20019;-58
2023/01/16 03:44:37;;;;;;;0.00;0.00;;;;;;;4.27;77.03;98647.72;7357352;19;20043;-58
2023/01/16 03:47:08;;;;;;;0.10;0.10;;;;;;;4.23;77.08;98646.13;7357212;19;20014;-58
2023/01/16 03:49:40;;;;;;;0.00;0.00;;;;;;;4.14;77.21;98644.66;7353652;19;20613;-59
2023/01/16 03:52:11;;;;;;;0.08;0.08;;;;;;;4.15;77.39;98659.25;7358502;19;20113;-58
2023/01/16 03:54:42;;;;;;;0.00;0.00;;;;;;;4.13;77.13;98660.19;7358263;19;20465;-58
2023/01/16 03:57:13;;;;;;;0.00;0.00;;;;;;;4.10;76.98;98665.44;7358054;19;20006;-59
2023/01/16 03:59:42;;;;;;;0.00;0.00;;;;;;;4.06;77.01;98666.44;7356537;19;20014;-58
2023/01/16 04:02:20;;;;;;;0.00;0.00;;;;;;;4.04;76.93;98668.22;7357209;19;20473;-58
2023/01/16 04:04:48;;;;;;;0.10;0.10;;;;;;;4.01;76.91;98676.06;7356994;19;20014;-58
2023/01/16 04:07:34;;;;;;;0.10;0.10;;;;;;;3.98;76.71;98670.97;7356618;19;20758;-59
2023/01/16 04:10:05;;;;;;;0.10;0.10;;;;;;;3.94;76.92;98677.09;7358243;19;20014;-59
2023/01/16 04:12:44;;;;;;;0.00;0.00;;;;;;;3.88;77.09;98673.81;7359740;19;20017;-58
2023/01/16 04:15:09;;;;;;;0.10;0.10;;;;;;;3.75;77.20;98664.72;7346170;19;20629;-57
2023/01/16 04:17:37;;;;;;;0.00;0.00;;;;;;;3.84;76.67;98684.25;7357998;19;21627;-59
2023/01/16 04:20:03;;;;;;;0.00;0.00;;;;;;;3.80;77.15;98683.53;7352447;19;20368;-58
2023/01/16 04:22:29;;;;;;;0.00;0.00;;;;;;;3.78;77.37;98693.03;7342017;19;20754;-58
2023/01/16 04:24:57;;;;;;;0.10;0.10;;;;;;;3.76;76.89;98694.81;7359148;19;20018;-59
2023/01/16 04:27:23;;;;;;;0.00;0.00;;;;;;;3.74;77.08;98694.00;7358124;19;20006;-59
2023/01/16 04:29:49;;;;;;;0.00;0.00;;;;;;;3.71;77.03;98694.09;7359716;19;20018;-58
2023/01/16 04:32:15;;;;;;;0.05;0.05;;;;;;;3.66;77.05;98695.94;7357196;19;20038;-58
2023/01/16 04:34:40;;;;;;;0.10;0.10;;;;;;;3.64;77.11;98693.38;7358747;19;20018;-58
2023/01/16 04:37:06;;;;;;;0.00;0.00;;;;;;;3.62;77.07;98695.19;7354655;19;20032;-58
2023/01/16 04:39:31;;;;;;;0.00;0.00;;;;;;;3.60;77.48;98690.97;7360663;19;20038;-58
2023/01/16 04:41:57;;;;;;;0.10;0.10;;;;;;;3.58;77.59;98693.56;7359163;19;20023;-58
2023/01/16 04:44:23;;;;;;;0.10;0.10;;;;;;;3.56;77.54;98700.50;7354505;19;20018;-58
2023/01/16 04:46:48;;;;;;;0.08;0.08;;;;;;;3.53;77.41;98704.91;7359256;19;20582;-58
2023/01/16 04:49:14;;;;;;;0.10;0.10;;;;;;;3.51;77.81;98706.69;7358114;19;20011;-57
2023/01/16 04:51:39;;;;;;;0.10;0.10;;;;;;;3.50;77.67;98716.16;7355198;19;20011;-58
2023/01/16 04:54:07;;;;;;;0.10;0.10;;;;;;;3.48;77.50;98714.50;7359162;19;20007;-58
2023/01/16 04:56:33;;;;;;;0.00;0.00;;;;;;;3.46;77.29;98713.69;7357887;19;20070;-58
2023/01/16 04:58:59;;;;;;;0.10;0.10;;;;;;;3.43;77.70;98713.75;7354916;19;20506;-58
2023/01/16 05:01:25;;;;;;;0.00;0.00;;;;;;;3.41;77.71;98712.97;7351332;19;19999;-58
2023/01/16 05:03:50;;;;;;;0.10;0.10;;;;;;;3.37;77.53;98715.59;7360749;19;20010;-58
2023/01/16 05:06:16;;;;;;;0.10;0.10;;;;;;;3.36;78.01;98713.09;7356312;19;20018;-58
2023/01/16 05:08:41;;;;;;;0.10;0.10;;;;;;;3.32;77.74;98714.88;7358782;19;20854;-59
2023/01/16 05:11:07;;;;;;;0.10;0.10;;;;;;;3.31;78.01;98715.78;7359549;19;20010;-59
2023/01/16 05:13:32;;;;;;;0.00;0.00;;;;;;;3.27;77.79;98706.41;7359777;19;20011;-59
2023/01/16 05:15:58;;;;;;;0.00;0.00;;;;;;;3.24;78.19;98709.06;7360382;19;20461;-58
2023/01/16 05:18:24;;;;;;;0.00;0.00;;;;;;;3.16;78.16;98700.69;7359484;19;20739;-58
2023/01/16 05:20:49;;;;;;;0.10;0.10;;;;;;;3.17;78.19;98712.69;7353260;19;20022;-58
2023/01/16 05:23:15;;;;;;;0.00;0.00;;;;;;;3.15;77.87;98709.31;7357962;19;20002;-58
2023/01/16 05:25:40;;;;;;;0.10;0.10;;;;;;;3.13;78.21;98716.22;7361081;19;20017;-58
2023/01/16 05:28:06;;;;;;;0.00;0.00;;;;;;;3.11;77.57;98712.84;7354346;19;20811;-58
2023/01/16 05:30:31;;;;;;;0.00;0.00;;;;;;;3.08;77.75;98720.63;7358744;19;20021;-58
2023/01/16 05:32:57;;;;;;;0.00;0.00;;;;;;;3.03;77.61;98707.00;7360199;19;20034;-58
2023/01/16 05:35:22;;;;;;;0.10;0.10;;;;;;;3.02;77.99;98707.91;7358460;19;20035;-58
2023/01/16 05:37:48;;;;;;;0.10;0.10;;;;;;;3.02;77.60;98713.91;7350402;19;20010;-59
2023/01/16 05:40:14;;;;;;;0.00;0.00;;;;;;;3.00;77.93;98709.69;7357681;19;20469;-59
2023/01/16 05:42:42;;;;;;;0.10;0.10;;;;;;;2.98;77.94;98701.97;7355443;19;20017;-58
2023/01/16 05:45:08;;;;;;;0.10;0.10;;;;;;;2.83;77.69;98681.72;7354617;19;20014;-58
2023/01/16 05:47:34;;;;;;;0.10;0.10;;;;;;;2.93;78.11;98708.97;7359200;19;20010;-59
2023/01/16 05:49:59;;;;;;;0.03;0.03;;;;;;;2.92;77.85;98721.91;7356498;19;21669;-58
2023/01/16 05:52:25;;;;;;;0.10;0.10;;;;;;;2.89;77.81;98714.22;7359231;19;22455;-58
2023/01/16 05:54:51;;;;;;;0.10;0.10;;;;;;;2.87;77.96;98724.56;7354328;19;20027;-58
2023/01/16 05:57:17;;;;;;;0.00;0.00;;;;;;;2.78;77.47;98719.63;7364005;19;20038;-59
2023/01/16 05:59:45;;;;;;;0.00;0.00;;;;;;;2.83;78.00;98731.53;7361225;19;20007;-58
2023/01/16 06:02:11;;;;;;;0.00;0.00;;;;;;;2.81;77.42;98735.88;7365373;19;20019;-59
2023/01/16 06:04:36;;;;;;;0.10;0.10;;;;;;;2.78;77.70;98735.94;7362408;19;20107;-58
2023/01/16 06:07:02;;;;;;;0.00;0.00;;;;;;;2.76;77.72;98732.56;7364738;19;20042;-59
2023/01/16 06:09:27;;;;;;;0.00;0.00;;;;;;;2.74;77.68;98731.75;7364094;19;20011;-58
2023/01/16 06:11:53;;;;;;;0.00;0.00;;;;;;;2.72;77.86;98730.09;7366038;19;20455;-58
2023/01/16 06:14:18;;;;;;;0.00;0.00;;;;;;;2.70;77.98;98729.28;7365132;19;21711;-58
2023/01/16 06:16:44;;;;;;;0.00;0.00;;;;;;;2.68;77.62;98734.44;7365034;19;20733;-58
2023/01/16 06:19:10;;;;;;;0.10;0.10;;;;;;;2.64;78.01;98732.84;7362267;19;20022;-58
2023/01/16 06:21:35;;;;;;;0.10;0.10;;;;;;;2.64;77.63;98732.84;7363571;19;20018;-58
2023/01/16 06:24:01;;;;;;;0.10;0.10;;;;;;;2.62;77.84;98726.84;7359328;19;20014;-58
2023/01/16 06:26:26;;;;;;;0.10;0.10;;;;;;;2.57;77.56;98726.13;7365078;19;20011;-59
2023/01/16 06:28:51;;;;;;;0.08;0.08;;;;;;;2.54;77.42;98721.06;7363398;19;20030;-58
2023/01/16 06:31:17;;;;;;;0.08;0.08;;;;;;;2.55;77.73;98727.91;7366567;19;20014;-59
2023/01/16 06:33:42;;;;;;;0.08;0.08;;;;;;;2.54;77.97;98733.94;7360970;19;20043;-58
2023/01/16 06:36:08;;;;;;;0.08;0.08;;;;;;;2.50;77.75;98745.19;7365780;19;20056;-58
2023/01/16 06:38:33;;;;;;;0.10;0.10;;;;;;;2.49;77.55;98740.91;7358508;19;20444;-58
2023/01/16 06:40:59;;;;;;;0.10;0.10;;;;;;;2.47;77.71;98742.66;7366814;19;20018;-58
2023/01/16 06:43:28;;;;;;;0.10;0.10;;;;;;;2.47;77.51;98745.22;7361244;19;20018;-58
2023/01/16 06:45:54;;;;;;;0.10;0.10;;;;;;;2.43;77.55;98738.44;7365030;19;20764;-57
2023/01/16 06:48:20;;;;;;;0.05;0.05;;;;;;;2.40;77.70;98744.53;7365171;19;20048;-58
2023/01/16 06:50:45;;;;;;;0.10;0.10;;;;;;;2.39;77.56;98742.00;7364249;19;22390;-58
2023/01/16 06:53:11;;;;;;;0.10;0.10;;;;;;;2.36;77.66;98731.75;7362659;19;20023;-58
2023/01/16 06:55:37;;;;;;;0.10;0.10;;;;;;;2.34;77.56;98740.34;7365078;19;20030;-57
2023/01/16 06:58:03;;;;;;;0.00;0.00;;;;;;;2.33;77.50;98743.81;7353647;19;21250;-58
2023/01/16 07:00:28;;;;;;;0.10;0.10;;;;;;;2.31;77.43;98739.56;7363693;19;20023;-59
2023/01/16 07:02:56;;;;;;;0.00;0.00;;;;;;;2.20;77.81;98716.59;7359809;19;20042;-58
2023/01/16 07:05:23;;;;;;;0.10;0.10;;;;;;;2.28;77.60;98732.75;7361112;19;20455;-58
2023/01/16 07:07:49;;;;;;;0.10;0.10;;;;;;;2.19;77.82;98725.22;7363723;19;20018;-59
2023/01/16 07:10:14;;;;;;;0.10;0.10;;;;;;;2.23;77.64;98733.72;7363605;19;20006;-58
2023/01/16 07:12:40;;;;;;;0.10;0.10;;;;;;;2.20;77.40;98734.63;7361719;19;20519;-58
2023/01/16 07:23:33;;;;;;;0.00;0.00;;;;;;;2.11;76.89;98752.84;7359022;19;20017;-58
2023/01/16 07:26:01;;;;;;;0.10;0.10;;;;;;;2.06;77.04;98752.06;7360475;19;20605;-58
2023/01/16 07:28:28;;;;;;;0.00;0.00;;;;;;;2.03;77.42;98749.59;7360262;19;20849;-58
2023/01/16 07:30:54;;;;;;;0.05;0.05;;;;;;;2.00;77.42;98755.63;7358463;19;20709;-59
2023/01/16 07:33:19;;;;;;;0.00;0.00;;;;;;;1.98;77.19;98753.97;7361358;19;20010;-58
2023/01/16 07:35:45;;;;;;;0.03;0.03;;;;;;;1.95;77.11;98762.59;7363291;19;20736;-57
2023/01/16 07:38:11;;;;;;;0.10;0.10;;;;;;;1.92;77.47;98765.22;7363429;19;20007;-59
2023/01/16 07:40:36;;;;;;;0.10;0.10;;;;;;;1.92;77.76;98772.09;7360295;19;20019;-57
2023/01/16 07:43:01;;;;;;;0.10;0.10;;;;;;;1.89;77.72;98770.44;7362445;19;20010;-59
2023/01/16 07:45:27;;;;;;;0.05;0.05;;;;;;;1.87;77.87;98773.91;7360301;19;20014;-58
2023/01/16 07:47:52;;;;;;;0.10;0.10;;;;;;;1.77;77.55;98766.38;7365187;19;20010;-58
2023/01/16 07:50:17;;;;;;;0.10;0.10;;;;;;;1.83;77.81;98774.84;7343788;19;20015;-58
2023/01/16 07:52:45;;;;;;;0.10;0.10;;;;;;;1.81;77.73;98774.84;7359628;19;20007;-58
2023/01/16 07:55:10;;;;;;;;;;;;;;;1.80;77.14;98776.59;7361904;19;21549;-59
2023/01/16 07:57:37;;;;;;;0.10;0.10;;;;;;;1.77;77.39;98776.66;7358595;19;19961;-59
2023/01/16 08:00:05;;;;;;;0.10;0.10;;;;;;;1.75;77.60;98777.53;7361017;19;20018;-58
2023/01/16 08:02:31;;;;;;;0.10;0.10;;;;;;;1.71;77.22;98774.16;7357951;19;20030;-58
2023/01/16 08:04:56;;;;;;;0.10;0.10;;;;;;;1.66;77.48;98770.84;7360630;19;20003;-58
2023/01/16 08:07:21;;;;;;;0.10;0.10;;;;;;;1.63;77.48;98770.91;7359019;19;20014;-57
2023/01/16 08:09:47;;;;;;;0.10;0.10;;;;;;;1.63;77.12;98764.91;7360451;19;20010;-58
2023/01/16 08:12:12;;;;;;;0.10;0.10;;;;;;;1.60;77.42;98773.53;7362809;19;20036;-58
2023/01/16 08:14:38;;;;;;;0.00;0.00;;;;;;;1.58;77.24;98777.84;7361819;19;20353;-58
2023/01/16 08:17:05;;;;;;;0.00;0.00;;;;;;;1.56;77.34;98779.59;7362164;19;20020;-58
2023/01/16 08:19:30;;;;;;;0.00;0.00;;;;;;;1.54;77.34;98776.19;7357087;19;20018;-58
2023/01/16 08:21:56;;;;;;;0.00;0.00;;;;;;;1.52;77.09;98778.81;7362818;19;20481;-58
2023/01/16 08:24:23;;;;;;;0.10;0.10;;;;;;;1.51;77.39;98796.81;7360052;19;20515;-58
2023/01/16 08:26:48;;;;;;;0.10;0.10;;;;;;;1.50;77.45;98795.13;7360989;19;20011;-58
2023/01/16 08:29:14;;;;;;;0.10;0.10;;;;;;;1.50;77.65;98800.28;7361026;19;20014;-57
2023/01/16 08:31:39;;;;;;;0.08;0.08;;;;;;;1.49;77.89;98793.44;7363446;19;20002;-57
2023/01/16 08:34:05;;;;;;;0.00;0.00;;;;;;;1.47;77.41;98803.75;7359117;19;20006;-59
2023/01/16 08:36:30;;;;;;;0.10;0.10;;;;;;;1.46;77.65;98801.19;7360056;19;20014;-58
2023/01/16 08:38:55;;;;;;;0.05;0.05;;;;;;;1.45;77.29;98797.78;7361483;19;20006;-58
2023/01/16 08:52:26;;;;;;;0.10;0.10;;;;;;;1.43;77.14;98820.13;7357604;19;21292;-58
2023/01/16 08:54:52;;;;;;;0.00;0.00;;;;;;;1.43;77.22;98821.84;7356160;19;20011;-58
2023/01/16 08:57:18;;;;;;;0.05;0.05;;;;;;;1.42;77.47;98823.56;7361227;19;20026;-58
2023/01/16 08:59:43;;;;;;;0.08;0.08;;;;;;;1.43;77.29;98819.25;7361442;19;20013;-59
2023/01/16 09:02:10;;;;;;;0.10;0.10;;;;;;;1.42;77.07;98818.41;7355039;19;20020;-58
2023/01/16 09:04:36;;;;;;;0.10;0.10;;;;;;;1.43;77.04;98821.84;7359368;19;20011;-58
2023/01/16 09:07:01;;;;;;;0.10;0.10;;;;;;;1.44;76.85;98826.09;7354196;19;20034;-58
2023/01/16 09:09:28;;;;;;;0.10;0.10;;;;;;;1.44;76.94;98826.09;7354535;19;20018;-58
2023/01/16 09:14:39;;;;;;;0.00;0.00;;;;;;;1.45;77.23;98827.78;7358845;19;20016;-58
2023/01/16 09:17:06;;;;;;;0.10;0.10;;;;;;;1.46;77.45;98840.63;7360078;19;20011;-58
2023/01/16 09:19:32;;;;;;;0.10;0.10;;;;;;;1.47;77.43;98839.78;7357157;19;20022;-59
2023/01/16 09:21:57;;;;;;;0.00;0.00;;;;;;;1.37;77.38;98824.47;7355370;19;20018;-58
2023/01/16 09:24:22;;;;;;;0.00;0.00;;;;;;;1.50;77.44;98836.28;7356193;19;20086;-58
2023/01/16 09:26:48;;;;;;;0.10;0.10;;;;;;;1.50;77.18;98831.97;7361938;19;20018;-58
2023/01/16 09:29:13;;;;;;;0.10;0.10;;;;;;;1.53;77.26;98836.25;7359734;19;19999;-59
2023/01/16 09:31:38;;;;;;;0.10;0.10;;;;;;;1.49;77.69;98824.31;7359803;19;20007;-58
2023/01/16 09:34:04;;;;;;;0.10;0.10;;;;;;;1.59;77.42;98835.28;7359097;19;20759;-58
2023/01/16 09:36:29;;;;;;;0.10;0.10;;;;;;;1.65;77.66;98836.03;7364642;19;20015;-58
2023/01/16 09:38:55;;;;;;;0.10;0.10;;;;;;;1.75;77.74;98836.72;7363555;19;20006;-59
2023/01/16 09:44:25;;;;;;;0.00;0.00;;;;;;;2.04;77.69;98834.50;7256809;19;2005244;-58
2023/01/16 09:46:51;;;;;;;0.10;0.10;;;;;;;2.19;77.54;98833.38;7359581;19;20025;-58
2023/01/16 09:49:30;;;;;;;0.10;0.10;;;;;;;2.34;77.43;98835.66;7361236;19;20014;-58
2023/01/16 10:00:26;;;;;;;0.10;0.10;;;;;;;3.07;77.33;98843.56;7359169;19;20039;-58
2023/01/16 10:02:52;;;;;;;0.10;0.10;;;;;;;3.24;77.08;98838.03;7362377;19;20657;-59
2023/01/16 10:05:17;;;;;;;0.00;0.00;;;;;;;3.33;76.96;98832.66;7361427;19;20015;-58
2023/01/16 10:07:57;;;;;;;0.00;0.00;;;;;;;3.67;76.70;98838.75;7363083;19;20007;-58
2023/01/16 10:10:46;;;;;;;0.10;0.10;;;;;;;3.87;76.11;98847.69;7364113;19;20013;-58
2023/01/16 10:13:36;;;;;;;0.10;0.10;;;;;;;4.12;76.20;98839.31;7366226;19;20011;-58
2023/01/16 10:16:30;;;;;;;0.10;0.10;;;;;;;4.31;75.97;98850.88;7364463;19;20673;-58
2023/01/16 10:19:14;;;;;;;0.10;0.10;;;;;;;4.56;75.64;98845.00;7247965;19;2004557;-58
2023/01/16 10:22:23;;;;;;;0.10;0.10;;;;;;;4.79;75.50;98847.78;7364038;19;20467;-59
2023/01/16 10:25:13;;;;;;;0.10;0.10;;;;;;;5.02;75.34;98838.47;7262100;19;2004246;-57
2023/01/16 10:28:00;;;;;;;0.10;0.10;;;;;;;5.29;75.28;98840.25;7361194;19;20078;-58
2023/01/16 10:30:35;;;;;;;0.00;0.00;;;;;;;5.51;74.29;98837.81;7367005;19;20006;-58
2023/01/16 10:33:12;;;;;;;0.00;0.00;;;;;;;5.72;73.41;98838.88;7361378;19;20018;-58
2023/01/16 10:35:43;;;;;;;0.00;0.00;;;;;;;6.04;73.42;98837.00;7367403;19;20014;-59
2023/01/16 10:49:25;;;;;;;0.00;0.00;;;;;;;6.57;72.16;98842.03;7262151;19;2004642;-58
2023/01/16 10:49:28;;;;;;;0.00;0.00;;;;;;;7.35;70.72;98826.97;7364247;19;20017;-57
2023/01/16 10:51:57;;;;;;;0.10;0.10;;;;;;;7.67;70.50;98832.59;7363918;19;20025;-58
2023/01/16 10:54:23;;;;;;;0.00;0.00;;;;;;;7.86;70.09;98828.34;7363151;19;20736;-59
2023/01/16 10:56:49;;;;;;;0.00;0.00;;;;;;;8.09;69.47;98827.38;7366030;19;20010;-56
2023/01/16 10:59:15;;;;;;;0.10;0.10;;;;;;;8.32;69.17;98826.38;7364328;19;20446;-58
2023/01/16 11:01:41;;;;;;;0.00;0.00;;;;;;;8.52;68.83;98829.00;7362033;19;20003;-59
2023/01/16 11:04:10;;;;;;;0.10;0.10;;;;;;;8.77;68.62;98833.94;7358654;19;20029;-57
2023/01/16 11:06:40;;;;;;;0.00;0.00;;;;;;;8.93;68.00;98835.84;7358280;19;20020;-59
2023/01/16 11:09:12;;;;;;;0.00;0.00;;;;;;;9.12;67.79;98833.22;7353368;19;20002;-59
2023/01/16 11:20:34;;;;;;;0.00;0.00;;;;;;;9.42;67.14;98808.31;7249775;19;2005696;-58
2023/01/16 11:23:09;;;;;;;0.10;0.10;;;;;;;9.52;67.37;98816.53;7355652;19;19994;-58
2023/01/16 11:25:35;;;;;;;0.00;0.00;;;;;;;9.55;66.87;98806.81;7357436;19;20096;-58
2023/01/16 11:28:05;;;;;;;0.10;0.10;;;;;;;9.68;67.20;98801.88;7358306;19;20113;-59
2023/01/16 11:30:38;;;;;;;0.10;0.10;;;;;;;9.93;67.15;98806.69;7358504;19;20552;-59
2023/01/16 11:33:08;;;;;;;0.10;0.10;;;;;;;10.08;66.35;98798.06;7363352;19;20018;-58
2023/01/16 11:35:36;;;;;;;0.10;0.10;;;;;;;10.23;66.48;98779.97;7358632;19;20021;-59
2023/01/16 11:38:03;;;;;;;0.03;0.03;;;;;;;10.51;65.75;98793.28;7361737;19;20017;-59
2023/01/16 11:40:35;;;;;;;0.05;0.05;;;;;;;10.77;65.99;98788.44;7344432;19;20045;-58
2023/01/16 11:46:02;;;;;;;0.10;0.10;;;;;;;11.26;65.03;98780.53;7260344;19;2004619;-59
2023/01/16 11:48:33;;;;;;;0.10;0.10;;;;;;;11.51;64.58;98780.81;7360824;19;20025;-59
2023/01/16 11:50:59;;;;;;;0.10;0.10;;;;;;;11.65;64.55;98759.09;7362799;19;20353;-59
2023/01/16 11:53:31;;;;;;;0.10;0.10;;;;;;;12.06;64.48;98771.53;7356955;19;24650;-58
2023/01/16 11:56:16;;;;;;;0.00;0.00;;;;;;;12.33;65.46;98769.91;7359932;19;20487;-59
2023/01/16 11:58:49;;;;;;;0.10;0.10;;;;;;;12.53;64.46;98766.06;7353311;19;20553;-58
2023/01/16 12:04:40;;;;;;;0.10;0.10;;;;;;;12.93;61.98;98747.88;7154864;19;2004399;-58
2023/01/16 12:07:23;;;;;;;0.10;0.10;;;;;;;13.18;62.41;98753.22;7357829;19;20018;-59
2023/01/16 12:09:57;;;;;;;0.00;0.00;;;;;;;13.34;62.13;98747.00;7349572;19;20014;-58
2023/01/16 12:15:39;;;;;;;0.03;0.03;;;;;;;13.62;61.61;98736.38;7355576;19;20033;-58
2023/01/16 12:18:32;;;;;;;0.00;0.00;;;;;;;13.70;62.21;98739.31;7256965;19;2004307;-59
2023/01/16 12:21:03;;;;;;;0.10;0.10;;;;;;;13.79;61.92;98743.13;7254888;19;2004285;-59
2023/01/16 12:23:50;;;;;;;0.10;0.10;;;;;;;13.82;62.24;98744.69;7359740;19;20093;-59
2023/01/16 12:26:26;;;;;;;0.10;0.10;;;;;;;13.87;62.47;98737.34;7358370;19;20006;-58
2023/01/16 12:29:06;;;;;;;0.00;0.00;;;;;;;13.85;61.37;98736.63;7359928;19;20006;-58
2023/01/16 12:31:50;;;;;;;0.10;0.10;;;;;;;13.96;62.97;98734.94;7360219;19;20086;-58
2023/01/16 12:34:40;;;;;;;0.00;0.00;;;;;;;14.08;63.51;98733.25;7357095;19;20006;-58
2023/01/16 12:37:12;;;;;;;0.00;0.00;;;;;;;14.11;61.65;98727.81;7352814;19;20011;-59
2023/01/16 12:39:43;;;;;;;0.10;0.10;;;;;;;14.24;60.62;98727.78;7362503;19;20091;-59
2023/01/16 12:45:43;;;;;;;0.05;0.05;;;;;;;14.45;63.93;98720.22;7258278;19;2004389;-59
2023/01/16 12:48:27;;;;;;;;;;;;;;;14.57;65.56;98708.88;7259798;19;2004563;-59
2023/01/16 12:51:23;;;;;;;0.10;0.10;;;;;;;14.59;63.38;98695.63;7356813;19;19915;-59
2023/01/16 12:53:51;;;;;;;0.10;0.10;;;;;;;14.54;61.56;98693.31;7257525;19;2004431;-59
2023/01/16 12:56:46;;;;;;;0.05;0.05;;;;;;;14.64;62.68;98691.72;7362730;19;20035;-59
2023/01/16 12:59:25;;;;;;;0.00;0.00;;;;;;;14.70;62.49;98687.81;7247233;19;2004328;-58
2023/01/16 13:02:21;;;;;;;0.00;0.00;;;;;;;14.79;63.46;98677.47;7362449;19;20014;-59